createdAt,value
2023-04-30T00:00:36.294Z,8.23
2023-04-30T00:06:06.503Z,8.17
2023-04-30T00:11:32.316Z,8.23
2023-04-30T00:16:58.333Z,8.25
2023-04-30T00:22:26.343Z,8.33
2023-04-30T00:27:50.459Z,8.30
2023-04-30T00:33:21.336Z,8.13
2023-04-30T00:38:49.341Z,8.05
2023-04-30T00:44:14.342Z,7.97
2023-04-30T00:49:39.315Z,7.92
2023-04-30T00:55:06.317Z,7.84
2023-04-30T01:00:31.486Z,7.84
2023-04-30T01:05:56.362Z,7.78
2023-04-30T01:11:32.347Z,7.75
2023-04-30T01:17:03.327Z,7.68
2023-04-30T01:22:41.333Z,7.39
2023-04-30T01:28:18.345Z,7.29
2023-04-30T01:33:43.315Z,7.18
2023-04-30T01:39:22.318Z,7.13
2023-04-30T01:45:04.341Z,7.12
2023-04-30T01:50:36.369Z,7.07
2023-04-30T01:56:08.344Z,7.14
2023-04-30T02:01:45.387Z,7.21
2023-04-30T02:07:10.350Z,7.26
2023-04-30T02:12:37.339Z,7.27
2023-04-30T02:18:05.398Z,7.27
2023-04-30T02:23:30.353Z,7.29
2023-04-30T02:28:55.530Z,7.34
2023-04-30T02:34:29.401Z,7.33
2023-04-30T02:39:54.787Z,7.31
2023-04-30T02:45:20.358Z,7.28
2023-04-30T02:50:48.372Z,7.19
2023-04-30T02:56:12.354Z,7.07
2023-04-30T03:01:37.530Z,7.04
2023-04-30T03:07:04.380Z,7.04
2023-04-30T03:12:29.420Z,6.99
2023-04-30T03:17:54.424Z,6.92
2023-04-30T03:23:22.386Z,6.79
2023-04-30T03:28:47.623Z,6.73
2023-04-30T03:34:20.410Z,6.55
2023-04-30T03:39:48.395Z,6.50
2023-04-30T03:45:12.425Z,6.44
2023-04-30T03:50:37.405Z,6.40
2023-04-30T03:56:06.383Z,6.38
2023-04-30T04:01:31.441Z,6.25
2023-04-30T04:06:55.438Z,6.10
2023-04-30T04:12:23.559Z,5.98
2023-04-30T04:17:47.475Z,5.97
2023-04-30T04:23:12.440Z,5.89
2023-04-30T04:28:39.420Z,5.85
2023-04-30T04:34:05.555Z,5.78
2023-04-30T04:39:29.435Z,5.67
2023-04-30T04:44:57.466Z,5.66
2023-04-30T04:50:24.432Z,5.63
2023-04-30T04:55:49.555Z,5.59
2023-04-30T05:01:17.518Z,5.62
2023-04-30T05:06:42.522Z,5.61
2023-04-30T05:12:09.430Z,5.70
2023-04-30T05:17:37.485Z,5.78
2023-04-30T05:23:01.624Z,5.81
2023-04-30T05:28:26.469Z,5.82
2023-04-30T05:34:00.470Z,5.80
2023-04-30T05:39:25.518Z,5.83
2023-04-30T05:44:49.501Z,5.90
2023-04-30T05:50:19.476Z,6.00
2023-04-30T05:55:44.513Z,6.12
2023-04-30T06:01:09.500Z,6.25
2023-04-30T06:06:37.530Z,6.41
2023-04-30T06:12:03.476Z,6.60
2023-04-30T06:17:27.474Z,6.70
2023-04-30T06:22:55.484Z,6.78
2023-04-30T06:28:21.492Z,6.89
2023-04-30T06:33:46.477Z,6.90
2023-04-30T06:39:13.545Z,6.89
2023-04-30T06:44:38.509Z,6.98
2023-04-30T06:50:03.502Z,7.15
2023-04-30T06:55:31.518Z,7.26
2023-04-30T07:00:55.721Z,7.42
2023-04-30T07:06:21.524Z,7.60
2023-04-30T07:11:49.542Z,7.59
2023-04-30T07:17:14.506Z,7.58
2023-04-30T07:22:38.569Z,7.68
2023-04-30T07:28:06.517Z,7.54
2023-04-30T07:33:31.568Z,7.49
2023-04-30T07:38:56.519Z,7.46
2023-04-30T07:44:24.502Z,7.52
2023-04-30T07:49:55.758Z,7.43
2023-04-30T07:55:20.534Z,7.57
2023-04-30T08:00:47.505Z,7.72
2023-04-30T08:06:13.542Z,7.69
2023-04-30T08:11:37.534Z,7.72
2023-04-30T08:17:06.495Z,7.82
2023-04-30T08:22:31.505Z,7.88
2023-04-30T08:27:58.004Z,8.11
2023-04-30T08:33:24.652Z,8.36
2023-04-30T08:38:49.551Z,8.57
2023-04-30T08:44:17.582Z,8.69
2023-04-30T08:49:45.551Z,8.54
2023-04-30T08:55:12.546Z,8.71
2023-04-30T09:00:37.560Z,8.86
2023-04-30T09:06:04.604Z,8.98
2023-04-30T09:11:34.572Z,9.13
2023-04-30T09:17:04.572Z,9.18
2023-04-30T09:22:33.581Z,9.31
2023-04-30T09:27:58.536Z,9.44
2023-04-30T09:33:23.600Z,9.62
2023-04-30T09:38:51.579Z,9.84
2023-04-30T09:44:16.603Z,9.95
2023-04-30T09:49:40.571Z,10.07
2023-04-30T09:55:08.570Z,10.10
2023-04-30T10:00:34.617Z,10.18
2023-04-30T10:06:00.658Z,10.18
2023-04-30T10:11:33.566Z,10.38
2023-04-30T10:17:04.614Z,10.54
2023-04-30T10:22:29.609Z,10.40
2023-04-30T10:27:57.599Z,10.45
2023-04-30T10:33:32.574Z,10.60
2023-04-30T10:38:58.595Z,10.75
2023-04-30T10:44:25.612Z,10.90
2023-04-30T10:49:55.969Z,11.04
2023-04-30T10:55:21.604Z,11.21
2023-04-30T11:01:00.672Z,11.12
2023-04-30T11:06:33.637Z,11.24
2023-04-30T11:12:12.602Z,11.41
2023-04-30T11:17:42.635Z,11.53
2023-04-30T11:23:28.492Z,11.69
2023-04-30T11:29:07.698Z,11.96
2023-04-30T11:34:43.654Z,11.48
2023-04-30T11:40:11.668Z,11.77
2023-04-30T11:45:37.687Z,11.95
2023-04-30T11:51:05.668Z,12.02
2023-04-30T11:56:30.649Z,12.30
2023-04-30T12:01:55.694Z,12.52
2023-04-30T12:07:23.649Z,12.74
2023-04-30T12:12:49.292Z,12.73
2023-04-30T12:18:16.718Z,12.95
2023-04-30T12:23:44.645Z,13.06
2023-04-30T12:29:16.634Z,13.50
2023-04-30T12:34:42.664Z,13.70
2023-04-30T12:40:11.710Z,13.89
2023-04-30T12:45:57.693Z,14.23
2023-04-30T12:51:21.671Z,14.51
2023-04-30T12:56:52.689Z,14.71
2023-04-30T13:02:24.784Z,14.83
2023-04-30T13:07:49.681Z,14.39
2023-04-30T13:13:16.752Z,14.92
2023-04-30T13:18:41.797Z,14.89
2023-04-30T13:24:05.711Z,15.28
2023-04-30T13:29:40.899Z,15.41
2023-04-30T13:35:05.670Z,15.97
2023-04-30T13:40:29.710Z,16.33
2023-04-30T13:45:57.795Z,15.88
2023-04-30T13:51:22.719Z,15.54
2023-04-30T13:56:47.739Z,15.65
2023-04-30T14:02:15.696Z,16.23
2023-04-30T14:07:40.725Z,16.64
2023-04-30T14:13:04.709Z,16.64
2023-04-30T14:18:32.725Z,16.81
2023-04-30T14:23:58.722Z,16.81
2023-04-30T14:29:29.753Z,17.04
2023-04-30T14:34:57.750Z,17.47
2023-04-30T14:40:23.736Z,17.71
2023-04-30T14:45:49.842Z,17.40
2023-04-30T14:51:17.754Z,17.44
2023-04-30T14:56:42.756Z,18.10
2023-04-30T15:02:06.854Z,17.78
2023-04-30T15:07:34.749Z,18.31
2023-04-30T15:12:58.737Z,18.52
2023-04-30T15:18:23.747Z,18.17
2023-04-30T15:23:50.771Z,18.47
2023-04-30T15:29:21.767Z,18.40
2023-04-30T15:34:46.783Z,18.35
2023-04-30T15:40:14.784Z,18.78
2023-04-30T15:45:40.823Z,18.85
2023-04-30T15:51:05.774Z,18.71
2023-04-30T15:56:33.799Z,18.85
2023-04-30T16:01:58.845Z,19.03
2023-04-30T16:07:23.800Z,19.07
2023-04-30T16:12:50.799Z,18.74
2023-04-30T16:18:16.819Z,18.42
2023-04-30T16:23:40.815Z,18.62
2023-04-30T16:29:15.810Z,18.63
2023-04-30T16:34:40.833Z,18.18
2023-04-30T16:40:04.858Z,18.22
2023-04-30T16:45:33.017Z,18.24
2023-04-30T16:50:56.827Z,18.30
2023-04-30T16:56:21.817Z,18.23
2023-04-30T17:01:48.876Z,18.13
2023-04-30T17:07:13.932Z,17.98
2023-04-30T17:12:38.951Z,17.86
2023-04-30T17:18:06.913Z,17.67
2023-04-30T17:23:33.993Z,17.58
2023-04-30T17:28:58.843Z,17.25
2023-04-30T17:34:25.880Z,17.00
2023-04-30T17:39:50.854Z,16.47
2023-04-30T17:45:14.897Z,16.17
2023-04-30T17:50:42.868Z,15.64
2023-04-30T17:56:07.887Z,15.11
2023-04-30T18:01:33.884Z,14.53
2023-04-30T18:07:00.865Z,14.13
2023-04-30T18:12:27.004Z,13.93
2023-04-30T18:17:51.956Z,13.67
2023-04-30T18:23:19.883Z,13.37
2023-04-30T18:28:51.878Z,13.09
2023-04-30T18:34:16.884Z,12.62
2023-04-30T18:39:43.913Z,12.28
2023-04-30T18:45:08.962Z,11.94
2023-04-30T18:50:33.893Z,11.67
2023-04-30T18:56:01.946Z,11.34
2023-04-30T19:01:28.000Z,11.00
2023-04-30T19:06:56.044Z,10.66
2023-04-30T19:12:23.942Z,10.46
2023-04-30T19:17:49.943Z,10.26
2023-04-30T19:23:16.904Z,10.13
2023-04-30T19:28:51.915Z,10.00
2023-04-30T19:34:20.940Z,9.91
2023-04-30T19:39:46.941Z,9.73
2023-04-30T19:45:17.909Z,9.48
2023-04-30T19:50:49.024Z,9.37
2023-04-30T19:56:14.961Z,9.28
2023-04-30T20:01:42.982Z,9.18
2023-04-30T20:07:07.970Z,9.09
2023-04-30T20:12:33.155Z,8.91
2023-04-30T20:18:01.018Z,8.82
2023-04-30T20:23:30.057Z,8.66
2023-04-30T20:29:01.023Z,8.57
2023-04-30T20:34:29.117Z,8.54
2023-04-30T20:39:55.453Z,8.47
2023-04-30T20:45:22.152Z,8.24
2023-04-30T20:50:50.058Z,8.18
2023-04-30T20:56:16.150Z,8.04
2023-04-30T21:01:41.080Z,7.94
2023-04-30T21:07:08.984Z,7.78
2023-04-30T21:12:35.042Z,7.59
2023-04-30T21:18:00.089Z,7.51
2023-04-30T21:23:28.026Z,7.43
2023-04-30T21:29:01.303Z,7.30
2023-04-30T21:34:20.020Z,7.26
2023-04-30T21:39:48.077Z,7.15
2023-04-30T21:45:12.035Z,7.06
2023-04-30T21:50:38.029Z,6.98
2023-04-30T21:56:04.997Z,6.85
2023-04-30T22:01:34.110Z,6.73
2023-04-30T22:06:59.036Z,6.66
2023-04-30T22:12:28.042Z,6.42
2023-04-30T22:17:53.039Z,6.31
2023-04-30T22:23:17.978Z,6.23
2023-04-30T22:28:45.982Z,6.16
2023-04-30T22:34:12.998Z,6.13
2023-04-30T22:39:37.060Z,6.17
2023-04-30T22:45:05.049Z,6.26
2023-04-30T22:50:29.025Z,6.22
2023-04-30T22:55:55.103Z,6.07
2023-04-30T23:01:22.041Z,5.95
2023-04-30T23:06:47.101Z,5.90
2023-04-30T23:12:12.023Z,5.83
2023-04-30T23:17:40.074Z,5.77
2023-04-30T23:23:04.052Z,5.68
2023-04-30T23:28:29.031Z,5.61
2023-04-30T23:33:56.056Z,5.53
2023-04-30T23:39:21.051Z,5.33
2023-04-30T23:44:45.043Z,5.30
2023-04-30T23:50:13.081Z,5.31
2023-04-30T23:55:37.126Z,5.29
